createdAt,value
2023-06-17T00:01:19.398Z,6.15
2023-06-17T00:03:47.252Z,5.80
2023-06-17T00:06:14.679Z,5.88
2023-06-17T00:08:42.232Z,5.32
2023-06-17T00:11:09.602Z,5.47
2023-06-17T00:13:37.724Z,5.85
2023-06-17T00:16:06.108Z,5.95
2023-06-17T00:18:33.768Z,4.72
2023-06-17T00:21:01.479Z,4.72
2023-06-17T00:23:28.829Z,4.63
2023-06-17T00:25:56.193Z,5.03
2023-06-17T00:28:23.582Z,3.92
2023-06-17T00:30:53.071Z,4.43
2023-06-17T00:33:22.105Z,4.75
2023-06-17T00:35:49.903Z,4.63
2023-06-17T00:38:17.263Z,5.32
2023-06-17T00:40:44.812Z,4.43
2023-06-17T00:43:12.111Z,4.78
2023-06-17T00:45:40.517Z,4.22
2023-06-17T00:48:11.018Z,5.32
2023-06-17T00:50:40.465Z,5.22
2023-06-17T00:53:09.062Z,5.05
2023-06-17T00:55:37.085Z,5.22
2023-06-17T00:58:05.063Z,4.93
2023-06-17T01:00:32.809Z,5.43
2023-06-17T01:03:00.567Z,5.78
2023-06-17T01:05:28.665Z,6.38
2023-06-17T01:08:30.089Z,5.97
2023-06-17T01:11:14.758Z,5.18
2023-06-17T01:13:47.724Z,5.35
2023-06-17T01:16:16.380Z,6.03
2023-06-17T01:18:49.441Z,5.43
2023-06-17T01:21:21.846Z,5.20
2023-06-17T01:23:54.407Z,5.70
2023-06-17T01:26:22.834Z,6.07
2023-06-17T01:28:54.356Z,6.43
2023-06-17T01:31:21.736Z,5.70
2023-06-17T01:33:51.393Z,5.72
2023-06-17T01:36:27.619Z,5.53
2023-06-17T01:39:04.276Z,5.90
2023-06-17T01:41:38.301Z,5.18
2023-06-17T01:44:07.931Z,5.15
2023-06-17T01:46:36.847Z,5.15
2023-06-17T01:49:04.646Z,6.00
2023-06-17T01:51:32.377Z,5.85
2023-06-17T01:54:02.057Z,5.68
2023-06-17T01:56:29.788Z,5.03
2023-06-17T01:58:58.327Z,5.30
2023-06-17T02:01:25.980Z,5.32
2023-06-17T02:03:53.971Z,5.22
2023-06-17T02:06:21.642Z,4.90
2023-06-17T02:08:50.000Z,4.78
2023-06-17T02:11:17.575Z,4.70
2023-06-17T02:13:44.967Z,5.10
2023-06-17T02:16:12.354Z,4.88
2023-06-17T02:18:40.569Z,5.60
2023-06-17T02:21:10.445Z,5.45
2023-06-17T02:23:37.881Z,5.32
2023-06-17T02:26:05.305Z,5.10
2023-06-17T02:28:32.786Z,4.70
2023-06-17T02:31:00.191Z,5.55
2023-06-17T02:33:29.056Z,4.60
2023-06-17T02:35:56.439Z,5.55
2023-06-17T02:38:25.804Z,4.70
2023-06-17T02:40:53.742Z,4.90
2023-06-17T02:43:21.393Z,4.88
2023-06-17T02:45:49.108Z,5.10
2023-06-17T02:48:16.560Z,5.00
2023-06-17T02:50:44.051Z,4.63
2023-06-17T02:53:11.664Z,5.25
2023-06-17T02:55:39.511Z,5.18
2023-06-17T02:58:17.026Z,4.55
2023-06-17T03:00:47.758Z,4.25
2023-06-17T03:03:15.271Z,4.88
2023-06-17T03:05:43.468Z,4.85
2023-06-17T03:08:11.212Z,4.60
2023-06-17T03:10:38.554Z,4.60
2023-06-17T03:13:12.202Z,6.10
2023-06-17T03:15:43.351Z,4.97
2023-06-17T03:18:11.078Z,5.18
2023-06-17T03:20:39.264Z,4.57
2023-06-17T03:23:06.777Z,4.88
2023-06-17T03:25:34.131Z,5.18
2023-06-17T03:28:05.428Z,4.75
2023-06-17T03:30:32.871Z,5.00
2023-06-17T03:33:01.822Z,4.93
2023-06-17T03:35:29.334Z,4.70
2023-06-17T03:37:56.612Z,5.57
2023-06-17T03:40:24.605Z,3.97
2023-06-17T03:42:52.173Z,4.55
2023-06-17T03:45:19.592Z,5.47
2023-06-17T03:47:48.489Z,5.45
2023-06-17T03:50:15.991Z,4.50
2023-06-17T03:52:44.216Z,5.93
2023-06-17T03:55:12.007Z,5.25
2023-06-17T03:57:39.440Z,5.30
2023-06-17T04:00:07.776Z,5.03
2023-06-17T04:02:46.202Z,5.18
2023-06-17T04:05:21.523Z,5.07
2023-06-17T04:07:50.065Z,4.80
2023-06-17T04:10:17.708Z,4.63
2023-06-17T04:12:45.073Z,4.55
2023-06-17T04:15:12.418Z,5.72
2023-06-17T04:17:39.914Z,5.88
2023-06-17T04:20:13.284Z,5.10
2023-06-17T04:22:42.642Z,4.53
2023-06-17T04:25:13.152Z,4.80
2023-06-17T04:27:45.619Z,4.83
2023-06-17T04:30:16.312Z,5.43
2023-06-17T04:32:45.612Z,5.32
2023-06-17T04:35:14.887Z,5.47
2023-06-17T04:37:55.046Z,5.70
2023-06-17T04:40:24.884Z,5.65
2023-06-17T04:42:53.209Z,5.68
2023-06-17T04:45:22.082Z,6.50
2023-06-17T04:47:56.003Z,6.28
2023-06-17T04:50:24.925Z,5.50
2023-06-17T04:52:52.884Z,5.22
2023-06-17T04:55:23.065Z,6.07
2023-06-17T04:57:51.283Z,5.22
2023-06-17T05:00:32.635Z,5.93
2023-06-17T05:03:00.133Z,5.53
2023-06-17T05:05:27.662Z,5.70
2023-06-17T05:07:55.578Z,5.07
2023-06-17T05:10:23.394Z,5.30
2023-06-17T05:12:50.803Z,5.70
2023-06-17T05:15:19.258Z,5.32
2023-06-17T05:17:46.801Z,4.53
2023-06-17T05:20:14.410Z,5.10
2023-06-17T05:22:42.407Z,5.28
2023-06-17T05:25:10.026Z,5.85
2023-06-17T05:27:39.584Z,5.72
2023-06-17T05:30:08.829Z,5.20
2023-06-17T05:32:36.639Z,6.32
2023-06-17T05:35:04.367Z,5.60
2023-06-17T05:37:33.911Z,5.95
2023-06-17T05:40:04.251Z,5.60
2023-06-17T05:42:33.242Z,6.53
2023-06-17T05:45:01.895Z,7.13
2023-06-17T05:47:31.166Z,7.22
2023-06-17T05:49:58.678Z,6.50
2023-06-17T05:52:26.285Z,6.32
2023-06-17T05:54:53.811Z,6.72
2023-06-17T05:57:22.405Z,7.80
2023-06-17T05:59:50.163Z,6.72
2023-06-17T06:02:18.777Z,6.68
2023-06-17T06:04:48.224Z,6.80
2023-06-17T06:07:15.642Z,6.25
2023-06-17T06:09:42.973Z,7.20
2023-06-17T06:12:11.786Z,6.85
2023-06-17T06:14:39.139Z,6.10
2023-06-17T06:17:06.645Z,5.68
2023-06-17T06:19:33.965Z,7.10
2023-06-17T06:22:01.307Z,6.57
2023-06-17T06:24:29.313Z,7.72
2023-06-17T06:26:56.672Z,7.68
2023-06-17T06:29:23.956Z,7.75
2023-06-17T06:31:51.555Z,6.85
2023-06-17T06:34:20.281Z,6.90
2023-06-17T06:36:47.746Z,8.40
2023-06-17T06:39:16.448Z,8.43
2023-06-17T06:41:44.989Z,8.77
2023-06-17T06:44:41.594Z,8.27
2023-06-17T06:47:09.120Z,8.68
2023-06-17T06:49:36.676Z,9.43
2023-06-17T06:52:06.554Z,9.52
2023-06-17T06:54:34.720Z,9.43
2023-06-17T06:57:02.664Z,8.43
2023-06-17T06:59:30.134Z,7.75
2023-06-17T07:01:57.868Z,7.57
2023-06-17T07:04:27.600Z,8.13
2023-06-17T07:07:07.576Z,8.23
2023-06-17T07:09:38.421Z,7.97
2023-06-17T07:12:06.735Z,8.25
2023-06-17T07:14:37.417Z,8.45
2023-06-17T07:17:06.081Z,8.45
2023-06-17T07:19:34.231Z,8.10
2023-06-17T07:22:02.680Z,8.00
2023-06-17T07:24:30.416Z,8.38
2023-06-17T07:26:57.810Z,9.75
2023-06-17T07:29:26.322Z,9.52
2023-06-17T07:31:54.373Z,8.90
2023-06-17T07:34:21.969Z,8.60
2023-06-17T07:36:53.729Z,9.65
2023-06-17T07:39:21.592Z,9.32
2023-06-17T07:41:49.224Z,8.52
2023-06-17T07:44:16.570Z,9.35
2023-06-17T07:46:44.068Z,8.77
2023-06-17T07:49:11.531Z,8.65
2023-06-17T07:51:38.966Z,8.52
2023-06-17T07:54:06.682Z,9.15
2023-06-17T07:56:37.228Z,8.90
2023-06-17T07:59:04.582Z,8.73
2023-06-17T08:01:34.800Z,8.02
2023-06-17T08:04:02.343Z,8.15
2023-06-17T08:06:30.452Z,7.70
2023-06-17T08:08:58.280Z,9.80
2023-06-17T08:11:26.106Z,9.77
2023-06-17T08:13:53.703Z,9.40
2023-06-17T08:16:21.143Z,8.73
2023-06-17T08:18:48.941Z,10.77
2023-06-17T08:21:16.946Z,7.82
2023-06-17T08:23:44.329Z,8.82
2023-06-17T08:26:12.792Z,8.18
2023-06-17T08:28:40.177Z,9.05
2023-06-17T08:31:07.585Z,8.50
2023-06-17T08:33:35.533Z,10.13
2023-06-17T08:36:02.995Z,9.98
2023-06-17T08:38:30.327Z,10.15
2023-06-17T08:40:57.694Z,9.27
2023-06-17T08:43:29.155Z,8.82
2023-06-17T08:45:57.724Z,8.13
2023-06-17T08:48:25.824Z,8.43
2023-06-17T08:50:56.506Z,8.68
2023-06-17T08:53:25.496Z,9.95
2023-06-17T08:55:52.974Z,9.50
2023-06-17T08:58:21.388Z,10.32
2023-06-17T09:00:49.582Z,9.18
2023-06-17T09:03:22.108Z,9.75
2023-06-17T09:05:54.532Z,8.00
2023-06-17T09:08:22.986Z,8.82
2023-06-17T09:10:50.293Z,8.63
2023-06-17T09:13:17.714Z,9.75
2023-06-17T09:15:45.172Z,7.65
2023-06-17T09:18:16.067Z,10.20
2023-06-17T09:20:50.071Z,9.77
2023-06-17T09:23:21.341Z,9.52
2023-06-17T09:25:48.822Z,8.45
2023-06-17T09:28:18.382Z,9.38
2023-06-17T09:30:54.392Z,8.30
2023-06-17T09:33:22.955Z,8.07
2023-06-17T09:36:09.764Z,8.10
2023-06-17T09:38:41.000Z,8.77
2023-06-17T09:41:13.319Z,7.80
2023-06-17T09:43:42.670Z,9.05
2023-06-17T09:46:12.341Z,8.02
2023-06-17T09:48:40.685Z,8.02
2023-06-17T09:51:10.522Z,9.15
2023-06-17T09:53:38.949Z,8.10
2023-06-17T09:56:11.956Z,7.45
2023-06-17T09:58:43.877Z,7.30
2023-06-17T10:01:13.525Z,7.43
2023-06-17T10:03:41.773Z,7.07
2023-06-17T10:06:11.745Z,6.88
2023-06-17T10:08:42.898Z,6.75
2023-06-17T10:11:15.726Z,7.78
2023-06-17T10:13:45.517Z,6.90
2023-06-17T10:16:17.082Z,7.32
2023-06-17T10:18:49.323Z,6.60
2023-06-17T10:21:19.856Z,6.30
2023-06-17T10:23:49.031Z,6.20
2023-06-17T10:26:16.601Z,5.70
2023-06-17T10:29:01.846Z,6.60
2023-06-17T10:31:31.304Z,7.28
2023-06-17T10:34:02.723Z,6.10
2023-06-17T10:36:30.421Z,5.85
2023-06-17T10:38:58.836Z,5.93
2023-06-17T10:41:53.453Z,5.47
2023-06-17T10:44:43.271Z,5.82
2023-06-17T10:47:20.843Z,5.00
2023-06-17T10:49:50.139Z,4.80
2023-06-17T10:52:18.296Z,4.88
2023-06-17T10:54:56.864Z,4.75
2023-06-17T10:57:35.874Z,5.53
2023-06-17T11:00:13.226Z,7.05
2023-06-17T11:02:41.511Z,5.55
2023-06-17T11:05:10.239Z,4.65
2023-06-17T11:07:38.014Z,5.03
2023-06-17T11:10:06.342Z,4.82
2023-06-17T11:12:37.335Z,5.20
2023-06-17T11:15:06.901Z,5.20
2023-06-17T11:17:34.593Z,4.38
2023-06-17T11:20:02.246Z,5.47
2023-06-17T11:22:29.731Z,4.85
2023-06-17T11:24:59.130Z,4.68
2023-06-17T11:27:26.596Z,5.38
2023-06-17T11:29:54.123Z,4.55
2023-06-17T11:32:25.353Z,4.00
2023-06-17T11:34:53.957Z,4.57
2023-06-17T11:37:31.528Z,4.57
2023-06-17T11:39:59.017Z,4.50
2023-06-17T11:42:27.041Z,4.45
2023-06-17T11:44:54.863Z,5.40
2023-06-17T11:47:33.628Z,4.47
2023-06-17T11:50:18.400Z,4.45
2023-06-17T11:52:55.444Z,4.30
2023-06-17T11:55:36.917Z,4.13
2023-06-17T11:58:08.270Z,4.13
2023-06-17T12:00:37.031Z,4.78
2023-06-17T12:03:07.754Z,5.18
2023-06-17T12:05:35.258Z,4.35
2023-06-17T12:08:03.005Z,4.88
2023-06-17T12:10:30.847Z,3.83
2023-06-17T12:12:59.977Z,2.85
2023-06-17T12:18:11.561Z,3.38
2023-06-17T12:20:39.665Z,3.70
2023-06-17T12:23:07.076Z,3.72
2023-06-17T12:25:35.440Z,4.28
2023-06-17T12:28:03.728Z,3.67
2023-06-17T12:30:32.672Z,4.40
2023-06-17T12:33:01.466Z,5.07
2023-06-17T12:35:28.973Z,4.63
2023-06-17T12:37:56.479Z,5.68
2023-06-17T12:40:23.972Z,5.72
2023-06-17T12:42:51.714Z,4.90
2023-06-17T12:45:19.827Z,5.25
2023-06-17T12:47:48.069Z,5.35
2023-06-17T12:50:16.904Z,5.90
2023-06-17T12:52:44.291Z,6.07
2023-06-17T12:55:11.730Z,4.68
2023-06-17T12:57:39.076Z,4.70
2023-06-17T13:00:07.669Z,4.75
2023-06-17T13:02:37.509Z,4.63
2023-06-17T13:05:06.734Z,4.80
2023-06-17T13:07:34.667Z,4.82
2023-06-17T13:10:03.111Z,5.53
2023-06-17T13:12:30.928Z,4.65
2023-06-17T13:14:58.576Z,5.07
2023-06-17T13:17:26.522Z,5.68
2023-06-17T13:19:54.461Z,5.50
2023-06-17T13:22:22.646Z,4.90
2023-06-17T13:24:50.422Z,5.28
2023-06-17T13:27:19.779Z,5.50
2023-06-17T13:29:47.853Z,5.43
2023-06-17T13:32:17.118Z,5.70
2023-06-17T13:34:47.431Z,5.25
2023-06-17T13:37:15.600Z,5.28
2023-06-17T13:39:44.881Z,4.20
2023-06-17T13:42:13.094Z,4.50
2023-06-17T13:44:45.868Z,4.25
2023-06-17T13:47:16.059Z,4.32
2023-06-17T13:49:43.907Z,4.35
2023-06-17T13:52:13.207Z,5.10
2023-06-17T13:54:41.051Z,4.40
2023-06-17T13:57:09.942Z,4.22
2023-06-17T13:59:37.629Z,3.80
2023-06-17T14:02:05.248Z,4.30
2023-06-17T14:04:32.595Z,3.40
2023-06-17T14:07:00.520Z,3.67
2023-06-17T14:09:28.307Z,4.65
2023-06-17T14:11:55.878Z,4.30
2023-06-17T14:14:23.568Z,4.03
2023-06-17T14:16:51.782Z,4.10
2023-06-17T14:19:22.104Z,4.05
2023-06-17T14:22:06.072Z,3.33
2023-06-17T14:24:36.832Z,4.00
2023-06-17T14:27:41.414Z,4.10
2023-06-17T14:30:11.637Z,3.90
2023-06-17T14:32:44.657Z,4.38
2023-06-17T14:35:14.688Z,4.35
2023-06-17T14:37:44.091Z,4.30
2023-06-17T14:40:12.878Z,4.65
2023-06-17T14:42:41.886Z,6.00
2023-06-17T14:45:11.942Z,5.53
2023-06-17T14:47:43.474Z,5.72
2023-06-17T14:50:15.148Z,4.80
2023-06-17T14:52:48.373Z,4.45
2023-06-17T14:55:16.351Z,4.50
2023-06-17T14:57:44.088Z,4.30
2023-06-17T15:00:12.975Z,4.50
2023-06-17T15:02:48.099Z,3.83
2023-06-17T15:05:17.327Z,4.00
2023-06-17T15:07:47.298Z,4.47
2023-06-17T15:10:15.232Z,3.67
2023-06-17T15:12:43.272Z,3.22
2023-06-17T15:15:13.172Z,3.20
2023-06-17T15:17:42.098Z,3.28
2023-06-17T15:20:10.841Z,3.55
2023-06-17T15:22:38.799Z,4.30
2023-06-17T15:25:06.824Z,4.13
2023-06-17T15:27:34.273Z,4.93
2023-06-17T15:30:01.668Z,5.65
2023-06-17T15:32:29.170Z,5.03
2023-06-17T15:35:16.468Z,4.90
2023-06-17T15:37:47.750Z,5.55
2023-06-17T15:40:15.175Z,4.82
2023-06-17T15:42:45.319Z,5.32
2023-06-17T15:45:13.318Z,5.25
2023-06-17T15:47:41.201Z,5.40
2023-06-17T15:50:09.112Z,5.00
2023-06-17T15:52:37.308Z,5.07
2023-06-17T15:55:04.953Z,5.30
2023-06-17T15:57:32.359Z,5.00
2023-06-17T15:59:59.839Z,5.30
2023-06-17T16:02:29.503Z,5.47
2023-06-17T16:04:57.078Z,4.78
2023-06-17T16:07:24.457Z,5.45
2023-06-17T16:09:53.548Z,5.70
2023-06-17T16:12:22.630Z,5.43
2023-06-17T16:14:49.987Z,4.47
2023-06-17T16:17:17.416Z,5.75
2023-06-17T16:19:44.946Z,4.97
2023-06-17T16:22:13.454Z,4.85
2023-06-17T16:24:45.526Z,5.57
2023-06-17T16:27:13.283Z,4.97
2023-06-17T16:29:41.061Z,4.80
2023-06-17T16:32:09.085Z,6.03
2023-06-17T16:34:37.347Z,5.18
2023-06-17T16:37:04.749Z,4.43
2023-06-17T16:39:33.047Z,5.05
2023-06-17T16:42:02.838Z,4.50
2023-06-17T16:44:32.286Z,5.45
2023-06-17T16:46:59.652Z,7.07
2023-06-17T16:49:27.113Z,6.00
2023-06-17T16:51:54.484Z,7.05
2023-06-17T16:54:21.860Z,5.82
2023-06-17T16:56:49.152Z,5.28
2023-06-17T16:59:18.210Z,6.03
2023-06-17T17:01:45.577Z,10.40
2023-06-17T17:04:13.669Z,8.20
2023-06-17T17:06:42.597Z,6.25
2023-06-17T17:09:10.476Z,4.78
2023-06-17T17:11:38.150Z,4.60
2023-06-17T17:14:05.778Z,5.00
2023-06-17T17:16:33.195Z,4.82
2023-06-17T17:19:00.569Z,4.60
2023-06-17T17:21:28.134Z,4.60
2023-06-17T17:23:55.846Z,4.65
2023-06-17T17:26:24.069Z,4.70
2023-06-17T17:28:52.048Z,4.32
2023-06-17T17:31:19.712Z,4.15
2023-06-17T17:33:47.348Z,4.13
2023-06-17T17:36:15.095Z,3.90
2023-06-17T17:38:43.325Z,4.40
2023-06-17T17:41:11.393Z,4.15
2023-06-17T17:43:39.416Z,4.13
2023-06-17T17:46:10.313Z,4.47
2023-06-17T17:48:37.922Z,3.88
2023-06-17T17:51:05.402Z,4.00
2023-06-17T17:53:33.093Z,4.22
2023-06-17T17:56:00.488Z,3.88
2023-06-17T17:58:28.558Z,3.95
2023-06-17T18:01:02.320Z,3.60
2023-06-17T18:03:30.452Z,3.47
2023-06-17T18:05:58.411Z,4.32
2023-06-17T18:08:25.876Z,3.95
2023-06-17T18:10:53.460Z,4.00
2023-06-17T18:13:21.121Z,4.60
2023-06-17T18:15:48.984Z,4.70
2023-06-17T18:18:17.594Z,4.53
2023-06-17T18:20:45.661Z,3.97
2023-06-17T18:23:13.825Z,4.57
2023-06-17T18:25:43.404Z,4.30
2023-06-17T18:28:10.723Z,4.53
2023-06-17T18:30:38.163Z,4.70
2023-06-17T18:33:05.637Z,4.60
2023-06-17T18:35:33.428Z,4.70
2023-06-17T18:38:00.771Z,4.95
2023-06-17T18:40:28.163Z,4.60
2023-06-17T18:42:55.510Z,5.57
2023-06-17T18:45:23.656Z,5.60
2023-06-17T18:47:52.076Z,5.30
2023-06-17T18:50:20.923Z,5.43
2023-06-17T18:52:48.502Z,5.60
2023-06-17T18:55:15.879Z,5.35
2023-06-17T18:57:43.777Z,4.93
2023-06-17T19:00:11.813Z,5.20
2023-06-17T19:02:39.367Z,4.85
2023-06-17T19:05:07.253Z,5.10
2023-06-17T19:07:38.930Z,4.95
2023-06-17T19:10:07.054Z,5.47
2023-06-17T19:12:34.542Z,5.68
2023-06-17T19:15:02.221Z,4.80
2023-06-17T19:17:29.641Z,5.30
2023-06-17T19:19:57.268Z,4.88
2023-06-17T19:22:24.959Z,4.78
2023-06-17T19:24:52.560Z,5.30
2023-06-17T19:27:19.947Z,4.70
2023-06-17T19:29:47.369Z,4.80
2023-06-17T19:32:14.759Z,5.43
2023-06-17T19:34:42.788Z,5.35
2023-06-17T19:37:10.205Z,5.85
2023-06-17T19:39:37.860Z,5.47
2023-06-17T19:42:05.488Z,5.43
2023-06-17T19:44:34.558Z,5.63
2023-06-17T19:47:01.978Z,5.90
2023-06-17T19:49:29.512Z,6.15
2023-06-17T19:51:56.930Z,6.25
2023-06-17T19:54:24.657Z,5.82
2023-06-17T19:56:52.845Z,5.78
2023-06-17T19:59:20.998Z,5.88
2023-06-17T20:01:48.647Z,5.50
2023-06-17T20:04:16.807Z,5.38
2023-06-17T20:06:45.296Z,5.75
2023-06-17T20:09:13.178Z,5.75
2023-06-17T20:11:40.860Z,5.85
2023-06-17T20:14:13.744Z,5.70
2023-06-17T20:16:41.740Z,5.93
2023-06-17T20:19:09.069Z,6.43
2023-06-17T20:21:36.594Z,6.03
2023-06-17T20:24:06.886Z,6.15
2023-06-17T20:26:34.268Z,5.53
2023-06-17T20:29:01.555Z,6.40
2023-06-17T20:31:40.182Z,5.70
2023-06-17T20:34:07.608Z,6.45
2023-06-17T20:36:55.439Z,5.95
2023-06-17T20:39:22.788Z,5.43
2023-06-17T20:41:50.427Z,6.53
2023-06-17T20:44:23.647Z,6.13
2023-06-17T20:47:01.254Z,5.63
2023-06-17T20:49:32.953Z,6.90
2023-06-17T20:52:00.573Z,6.40
2023-06-17T20:54:31.279Z,5.80
2023-06-17T20:56:59.441Z,6.10
2023-06-17T20:59:27.964Z,5.75
2023-06-17T21:01:56.049Z,6.15
2023-06-17T21:04:26.318Z,5.82
2023-06-17T21:06:53.847Z,5.75
2023-06-17T21:09:21.735Z,5.88
2023-06-17T21:11:49.087Z,6.25
2023-06-17T21:14:16.396Z,7.05
2023-06-17T21:16:43.796Z,6.47
2023-06-17T21:19:11.451Z,6.00
2023-06-17T21:21:38.780Z,6.50
2023-06-17T21:24:07.059Z,6.88
2023-06-17T21:26:34.431Z,7.18
2023-06-17T21:29:01.842Z,6.93
2023-06-17T21:31:29.255Z,6.90
2023-06-17T21:33:56.644Z,6.90
2023-06-17T21:36:24.012Z,7.50
2023-06-17T21:38:51.327Z,6.53
2023-06-17T21:41:18.704Z,7.03
2023-06-17T21:43:46.007Z,6.60
2023-06-17T21:46:13.583Z,7.97
2023-06-17T21:48:43.036Z,7.95
2023-06-17T21:51:10.748Z,8.65
2023-06-17T21:53:38.150Z,8.18
2023-06-17T21:56:05.671Z,8.23
2023-06-17T21:58:33.305Z,8.70
2023-06-17T22:01:00.778Z,8.65
2023-06-17T22:03:28.152Z,9.13
2023-06-17T22:05:55.532Z,8.40
2023-06-17T22:08:27.680Z,8.45
2023-06-17T22:11:01.731Z,8.00
2023-06-17T22:13:29.082Z,7.63
2023-06-17T22:15:56.493Z,8.07
2023-06-17T22:18:23.870Z,7.93
2023-06-17T22:20:51.298Z,7.53
2023-06-17T22:23:19.308Z,7.93
2023-06-17T22:25:46.752Z,8.80
2023-06-17T22:28:14.157Z,9.82
2023-06-17T22:30:41.577Z,10.13
2023-06-17T22:33:08.998Z,11.02
2023-06-17T22:35:36.496Z,9.80
2023-06-17T22:38:03.808Z,9.77
2023-06-17T22:40:31.140Z,8.95
2023-06-17T22:42:58.546Z,9.13
2023-06-17T22:45:25.918Z,8.82
2023-06-17T22:47:53.331Z,9.13
2023-06-17T22:50:21.067Z,8.90
2023-06-17T22:52:49.237Z,10.57
2023-06-17T22:55:17.397Z,10.18
2023-06-17T22:57:45.288Z,10.07
2023-06-17T23:00:13.128Z,10.85
2023-06-17T23:02:40.602Z,11.32
2023-06-17T23:05:08.565Z,11.10
2023-06-17T23:07:36.137Z,10.60
2023-06-17T23:10:03.548Z,11.40
2023-06-17T23:12:30.921Z,11.45
2023-06-17T23:14:58.252Z,10.30
2023-06-17T23:17:26.404Z,9.35
2023-06-17T23:19:54.370Z,10.80
2023-06-17T23:22:21.747Z,9.45
2023-06-17T23:24:49.093Z,10.18
2023-06-17T23:27:16.589Z,10.80
2023-06-17T23:29:44.162Z,11.43
2023-06-17T23:32:11.601Z,10.60
2023-06-17T23:34:38.946Z,12.13
2023-06-17T23:37:11.585Z,12.90
2023-06-17T23:39:38.865Z,9.70
2023-06-17T23:42:06.588Z,9.15
2023-06-17T23:44:34.242Z,9.73
2023-06-17T23:47:04.445Z,9.90
2023-06-17T23:49:39.183Z,9.88
2023-06-17T23:52:11.282Z,9.77
2023-06-17T23:54:39.121Z,10.73
2023-06-17T23:57:07.700Z,9.40
2023-06-17T23:59:35.066Z,9.25
